METAR Data
IDs: Format: Raw Decoded Include TAF

Data at: 1023 UTC 28 Sep 2021

ESSA 280950Z 15014KT 9999 BKN026 12/07 Q1025 NOSIG